sensor_id;sensor_type;location;lat;lon;timestamp;P1;durP1;ratioP1;P2;durP2;ratioP2
70953;SDS011;58618;47.490;8.736;2023-04-30T00:01:22;6.80;;;3.40;;
70953;SDS011;58618;47.490;8.736;2023-04-30T00:04:09;7.47;;;3.92;;
70953;SDS011;58618;47.490;8.736;2023-04-30T00:06:57;6.67;;;3.73;;
70953;SDS011;58618;47.490;8.736;2023-04-30T00:09:45;7.10;;;3.65;;
70953;SDS011;58618;47.490;8.736;2023-04-30T00:12:33;5.45;;;3.55;;
70953;SDS011;58618;47.490;8.736;2023-04-30T00:15:20;4.88;;;3.45;;
70953;SDS011;58618;47.490;8.736;2023-04-30T00:18:07;6.68;;;3.47;;
70953;SDS011;58618;47.490;8.736;2023-04-30T00:20:54;5.60;;;3.10;;
70953;SDS011;58618;47.490;8.736;2023-04-30T00:23:42;5.93;;;3.20;;
70953;SDS011;58618;47.490;8.736;2023-04-30T00:26:31;7.43;;;3.80;;
70953;SDS011;58618;47.490;8.736;2023-04-30T00:29:18;6.57;;;3.10;;
70953;SDS011;58618;47.490;8.736;2023-04-30T00:32:05;5.97;;;3.67;;
70953;SDS011;58618;47.490;8.736;2023-04-30T00:34:53;5.63;;;3.17;;
70953;SDS011;58618;47.490;8.736;2023-04-30T00:37:40;5.60;;;3.42;;
70953;SDS011;58618;47.490;8.736;2023-04-30T00:40:27;7.15;;;3.65;;
70953;SDS011;58618;47.490;8.736;2023-04-30T00:43:16;7.18;;;4.07;;
70953;SDS011;58618;47.490;8.736;2023-04-30T00:46:04;5.50;;;3.10;;
70953;SDS011;58618;47.490;8.736;2023-04-30T00:48:51;5.93;;;3.30;;
70953;SDS011;58618;47.490;8.736;2023-04-30T00:51:39;5.40;;;3.03;;
70953;SDS011;58618;47.490;8.736;2023-04-30T00:54:27;6.13;;;3.58;;
70953;SDS011;58618;47.490;8.736;2023-04-30T00:57:14;9.63;;;3.72;;
70953;SDS011;58618;47.490;8.736;2023-04-30T01:00:03;6.50;;;3.40;;
70953;SDS011;58618;47.490;8.736;2023-04-30T01:02:55;5.83;;;3.33;;
70953;SDS011;58618;47.490;8.736;2023-04-30T01:05:43;6.55;;;4.00;;
70953;SDS011;58618;47.490;8.736;2023-04-30T01:08:30;8.60;;;3.85;;
70953;SDS011;58618;47.490;8.736;2023-04-30T01:11:21;6.72;;;2.95;;
70953;SDS011;58618;47.490;8.736;2023-04-30T01:14:16;5.88;;;3.30;;
70953;SDS011;58618;47.490;8.736;2023-04-30T01:17:15;5.73;;;3.10;;
70953;SDS011;58618;47.490;8.736;2023-04-30T01:20:08;7.05;;;3.60;;
70953;SDS011;58618;47.490;8.736;2023-04-30T01:22:59;7.68;;;3.33;;
70953;SDS011;58618;47.490;8.736;2023-04-30T01:26:06;5.82;;;3.28;;
70953;SDS011;58618;47.490;8.736;2023-04-30T01:29:00;7.20;;;3.97;;
70953;SDS011;58618;47.490;8.736;2023-04-30T01:31:49;5.80;;;3.73;;
70953;SDS011;58618;47.490;8.736;2023-04-30T01:34:36;8.38;;;3.88;;
70953;SDS011;58618;47.490;8.736;2023-04-30T01:37:26;8.50;;;3.90;;
70953;SDS011;58618;47.490;8.736;2023-04-30T01:40:22;6.40;;;3.45;;
70953;SDS011;58618;47.490;8.736;2023-04-30T01:43:16;7.00;;;3.70;;
70953;SDS011;58618;47.490;8.736;2023-04-30T01:46:11;6.67;;;3.67;;
70953;SDS011;58618;47.490;8.736;2023-04-30T01:49:06;9.32;;;3.88;;
70953;SDS011;58618;47.490;8.736;2023-04-30T01:52:01;8.25;;;4.50;;
70953;SDS011;58618;47.490;8.736;2023-04-30T01:54:56;8.30;;;3.80;;
70953;SDS011;58618;47.490;8.736;2023-04-30T01:57:53;7.28;;;4.20;;
70953;SDS011;58618;47.490;8.736;2023-04-30T02:00:43;6.93;;;3.77;;
70953;SDS011;58618;47.490;8.736;2023-04-30T02:03:32;6.82;;;3.88;;
70953;SDS011;58618;47.490;8.736;2023-04-30T02:06:19;7.63;;;3.88;;
70953;SDS011;58618;47.490;8.736;2023-04-30T02:09:07;7.28;;;3.85;;
70953;SDS011;58618;47.490;8.736;2023-04-30T02:11:55;8.20;;;4.30;;
70953;SDS011;58618;47.490;8.736;2023-04-30T02:14:43;7.73;;;3.50;;
70953;SDS011;58618;47.490;8.736;2023-04-30T02:17:30;8.07;;;4.18;;
70953;SDS011;58618;47.490;8.736;2023-04-30T02:20:19;11.65;;;4.03;;
70953;SDS011;58618;47.490;8.736;2023-04-30T02:23:06;8.32;;;4.57;;
70953;SDS011;58618;47.490;8.736;2023-04-30T02:25:54;8.65;;;4.32;;
70953;SDS011;58618;47.490;8.736;2023-04-30T02:28:41;7.03;;;3.63;;
70953;SDS011;58618;47.490;8.736;2023-04-30T02:31:29;7.10;;;3.80;;
70953;SDS011;58618;47.490;8.736;2023-04-30T02:34:17;8.25;;;3.88;;
70953;SDS011;58618;47.490;8.736;2023-04-30T02:37:06;6.28;;;3.85;;
70953;SDS011;58618;47.490;8.736;2023-04-30T02:39:53;7.30;;;3.60;;
70953;SDS011;58618;47.490;8.736;2023-04-30T02:42:40;8.50;;;3.57;;
70953;SDS011;58618;47.490;8.736;2023-04-30T02:45:28;7.22;;;3.97;;
70953;SDS011;58618;47.490;8.736;2023-04-30T02:48:17;7.38;;;4.20;;
70953;SDS011;58618;47.490;8.736;2023-04-30T02:51:04;7.75;;;3.67;;
70953;SDS011;58618;47.490;8.736;2023-04-30T02:53:53;7.47;;;3.85;;
70953;SDS011;58618;47.490;8.736;2023-04-30T02:56:40;7.57;;;3.60;;
70953;SDS011;58618;47.490;8.736;2023-04-30T02:59:28;8.20;;;4.20;;
70953;SDS011;58618;47.490;8.736;2023-04-30T03:02:15;7.75;;;3.88;;
70953;SDS011;58618;47.490;8.736;2023-04-30T03:05:06;8.15;;;4.00;;
70953;SDS011;58618;47.490;8.736;2023-04-30T03:07:54;7.88;;;4.10;;
70953;SDS011;58618;47.490;8.736;2023-04-30T03:10:42;6.87;;;3.53;;
70953;SDS011;58618;47.490;8.736;2023-04-30T03:13:30;7.43;;;3.63;;
70953;SDS011;58618;47.490;8.736;2023-04-30T03:16:17;7.00;;;3.50;;
70953;SDS011;58618;47.490;8.736;2023-04-30T03:19:05;7.70;;;3.92;;
70953;SDS011;58618;47.490;8.736;2023-04-30T03:21:52;7.03;;;3.97;;
70953;SDS011;58618;47.490;8.736;2023-04-30T03:24:41;8.77;;;3.60;;
70953;SDS011;58618;47.490;8.736;2023-04-30T03:27:30;8.18;;;4.07;;
70953;SDS011;58618;47.490;8.736;2023-04-30T03:30:17;6.70;;;3.80;;
70953;SDS011;58618;47.490;8.736;2023-04-30T03:33:04;8.10;;;3.88;;
70953;SDS011;58618;47.490;8.736;2023-04-30T03:35:52;6.80;;;3.50;;
70953;SDS011;58618;47.490;8.736;2023-04-30T03:38:39;8.00;;;3.43;;
70953;SDS011;58618;47.490;8.736;2023-04-30T03:41:27;7.70;;;3.92;;
70953;SDS011;58618;47.490;8.736;2023-04-30T03:44:16;7.22;;;4.30;;
70953;SDS011;58618;47.490;8.736;2023-04-30T03:47:03;9.15;;;4.20;;
70953;SDS011;58618;47.490;8.736;2023-04-30T03:49:50;6.90;;;3.53;;
70953;SDS011;58618;47.490;8.736;2023-04-30T03:52:39;8.53;;;3.90;;
70953;SDS011;58618;47.490;8.736;2023-04-30T03:55:27;8.10;;;4.40;;
70953;SDS011;58618;47.490;8.736;2023-04-30T03:58:14;8.52;;;4.10;;
70953;SDS011;58618;47.490;8.736;2023-04-30T04:01:03;8.10;;;4.43;;
70953;SDS011;58618;47.490;8.736;2023-04-30T04:03:51;6.93;;;4.10;;
70953;SDS011;58618;47.490;8.736;2023-04-30T04:06:39;7.63;;;3.80;;
70953;SDS011;58618;47.490;8.736;2023-04-30T04:09:26;7.03;;;4.40;;
70953;SDS011;58618;47.490;8.736;2023-04-30T04:12:13;7.93;;;4.22;;
70953;SDS011;58618;47.490;8.736;2023-04-30T04:15:01;5.68;;;3.38;;
70953;SDS011;58618;47.490;8.736;2023-04-30T04:17:49;8.40;;;4.40;;
70953;SDS011;58618;47.490;8.736;2023-04-30T04:20:37;7.27;;;3.67;;
70953;SDS011;58618;47.490;8.736;2023-04-30T04:23:24;8.02;;;4.32;;
70953;SDS011;58618;47.490;8.736;2023-04-30T04:26:11;6.78;;;3.75;;
70953;SDS011;58618;47.490;8.736;2023-04-30T04:29:00;9.30;;;3.75;;
70953;SDS011;58618;47.490;8.736;2023-04-30T04:31:48;8.43;;;4.28;;
70953;SDS011;58618;47.490;8.736;2023-04-30T04:34:37;7.07;;;3.70;;
70953;SDS011;58618;47.490;8.736;2023-04-30T04:37:24;9.35;;;3.53;;
70953;SDS011;58618;47.490;8.736;2023-04-30T04:40:11;6.95;;;3.88;;
70953;SDS011;58618;47.490;8.736;2023-04-30T04:42:59;7.20;;;4.03;;
70953;SDS011;58618;47.490;8.736;2023-04-30T04:45:46;7.38;;;4.40;;
70953;SDS011;58618;47.490;8.736;2023-04-30T04:48:34;7.03;;;3.90;;
70953;SDS011;58618;47.490;8.736;2023-04-30T04:51:23;7.63;;;3.72;;
70953;SDS011;58618;47.490;8.736;2023-04-30T04:54:10;7.57;;;3.67;;
70953;SDS011;58618;47.490;8.736;2023-04-30T04:56:58;6.78;;;3.78;;
70953;SDS011;58618;47.490;8.736;2023-04-30T04:59:45;5.45;;;3.33;;
70953;SDS011;58618;47.490;8.736;2023-04-30T05:02:32;7.33;;;3.90;;
70953;SDS011;58618;47.490;8.736;2023-04-30T05:05:19;5.78;;;3.05;;
70953;SDS011;58618;47.490;8.736;2023-04-30T05:08:08;7.10;;;3.88;;
70953;SDS011;58618;47.490;8.736;2023-04-30T05:10:55;8.88;;;3.63;;
70953;SDS011;58618;47.490;8.736;2023-04-30T05:13:43;7.85;;;4.20;;
70953;SDS011;58618;47.490;8.736;2023-04-30T05:16:30;9.97;;;3.67;;
70953;SDS011;58618;47.490;8.736;2023-04-30T05:19:17;5.20;;;2.88;;
70953;SDS011;58618;47.490;8.736;2023-04-30T05:22:05;6.05;;;3.50;;
70953;SDS011;58618;47.490;8.736;2023-04-30T05:24:54;6.07;;;3.13;;
70953;SDS011;58618;47.490;8.736;2023-04-30T05:27:41;6.07;;;3.53;;
70953;SDS011;58618;47.490;8.736;2023-04-30T05:30:28;6.20;;;3.87;;
70953;SDS011;58618;47.490;8.736;2023-04-30T05:33:15;8.00;;;3.97;;
70953;SDS011;58618;47.490;8.736;2023-04-30T05:36:03;6.05;;;3.50;;
70953;SDS011;58618;47.490;8.736;2023-04-30T05:38:51;6.75;;;3.85;;
70953;SDS011;58618;47.490;8.736;2023-04-30T05:41:40;6.65;;;4.13;;
70953;SDS011;58618;47.490;8.736;2023-04-30T05:44:27;5.97;;;3.20;;
70953;SDS011;58618;47.490;8.736;2023-04-30T05:47:15;10.85;;;3.78;;
70953;SDS011;58618;47.490;8.736;2023-04-30T05:50:02;6.22;;;3.50;;
70953;SDS011;58618;47.490;8.736;2023-04-30T05:52:50;5.47;;;3.13;;
70953;SDS011;58618;47.490;8.736;2023-04-30T05:55:37;7.05;;;3.55;;
70953;SDS011;58618;47.490;8.736;2023-04-30T05:58:26;8.00;;;3.73;;
70953;SDS011;58618;47.490;8.736;2023-04-30T06:01:13;7.88;;;3.75;;
70953;SDS011;58618;47.490;8.736;2023-04-30T06:04:01;5.28;;;3.42;;
70953;SDS011;58618;47.490;8.736;2023-04-30T06:06:49;6.30;;;3.42;;
70953;SDS011;58618;47.490;8.736;2023-04-30T06:09:37;5.88;;;3.30;;
70953;SDS011;58618;47.490;8.736;2023-04-30T06:12:24;5.43;;;3.60;;
70953;SDS011;58618;47.490;8.736;2023-04-30T06:15:13;6.10;;;3.55;;
70953;SDS011;58618;47.490;8.736;2023-04-30T06:18:00;7.07;;;4.18;;
70953;SDS011;58618;47.490;8.736;2023-04-30T06:20:48;8.85;;;3.80;;
70953;SDS011;58618;47.490;8.736;2023-04-30T06:23:35;7.72;;;4.35;;
70953;SDS011;58618;47.490;8.736;2023-04-30T06:26:23;6.97;;;3.67;;
70953;SDS011;58618;47.490;8.736;2023-04-30T06:29:10;7.15;;;3.90;;
70953;SDS011;58618;47.490;8.736;2023-04-30T06:31:59;7.50;;;3.95;;
70953;SDS011;58618;47.490;8.736;2023-04-30T06:34:46;6.97;;;4.35;;
70953;SDS011;58618;47.490;8.736;2023-04-30T06:37:33;6.57;;;3.92;;
70953;SDS011;58618;47.490;8.736;2023-04-30T06:40:22;6.97;;;3.93;;
70953;SDS011;58618;47.490;8.736;2023-04-30T06:43:09;5.78;;;3.55;;
70953;SDS011;58618;47.490;8.736;2023-04-30T06:45:57;6.68;;;4.30;;
70953;SDS011;58618;47.490;8.736;2023-04-30T06:48:45;7.35;;;3.92;;
70953;SDS011;58618;47.490;8.736;2023-04-30T06:51:33;8.13;;;4.15;;
70953;SDS011;58618;47.490;8.736;2023-04-30T06:54:20;7.33;;;4.00;;
70953;SDS011;58618;47.490;8.736;2023-04-30T06:57:08;6.82;;;3.55;;
70953;SDS011;58618;47.490;8.736;2023-04-30T06:59:55;5.75;;;3.60;;
70953;SDS011;58618;47.490;8.736;2023-04-30T07:02:43;7.18;;;3.47;;
70953;SDS011;58618;47.490;8.736;2023-04-30T07:05:34;7.63;;;4.38;;
70953;SDS011;58618;47.490;8.736;2023-04-30T07:08:21;6.17;;;3.70;;
70953;SDS011;58618;47.490;8.736;2023-04-30T07:11:08;6.35;;;3.67;;
70953;SDS011;58618;47.490;8.736;2023-04-30T07:13:56;8.82;;;4.50;;
70953;SDS011;58618;47.490;8.736;2023-04-30T07:16:43;7.45;;;4.18;;
70953;SDS011;58618;47.490;8.736;2023-04-30T07:19:31;7.47;;;4.38;;
70953;SDS011;58618;47.490;8.736;2023-04-30T07:22:19;6.60;;;4.00;;
70953;SDS011;58618;47.490;8.736;2023-04-30T07:25:07;6.47;;;4.32;;
70953;SDS011;58618;47.490;8.736;2023-04-30T07:27:55;7.53;;;4.75;;
70953;SDS011;58618;47.490;8.736;2023-04-30T07:30:42;8.27;;;5.00;;
70953;SDS011;58618;47.490;8.736;2023-04-30T07:33:29;7.47;;;4.03;;
70953;SDS011;58618;47.490;8.736;2023-04-30T07:36:16;7.50;;;4.20;;
70953;SDS011;58618;47.490;8.736;2023-04-30T07:39:05;12.18;;;4.47;;
70953;SDS011;58618;47.490;8.736;2023-04-30T07:41:52;7.78;;;4.32;;
70953;SDS011;58618;47.490;8.736;2023-04-30T07:44:40;9.82;;;4.97;;
70953;SDS011;58618;47.490;8.736;2023-04-30T07:47:27;6.95;;;4.57;;
70953;SDS011;58618;47.490;8.736;2023-04-30T07:50:15;7.97;;;4.37;;
70953;SDS011;58618;47.490;8.736;2023-04-30T07:53:03;6.63;;;3.95;;
70953;SDS011;58618;47.490;8.736;2023-04-30T07:55:55;7.07;;;4.05;;
70953;SDS011;58618;47.490;8.736;2023-04-30T07:58:42;7.93;;;4.72;;
70953;SDS011;58618;47.490;8.736;2023-04-30T08:01:30;7.93;;;4.60;;
70953;SDS011;58618;47.490;8.736;2023-04-30T08:04:18;7.43;;;5.03;;
70953;SDS011;58618;47.490;8.736;2023-04-30T08:07:05;7.50;;;4.72;;
70953;SDS011;58618;47.490;8.736;2023-04-30T08:09:53;7.93;;;4.75;;
70953;SDS011;58618;47.490;8.736;2023-04-30T08:12:41;6.82;;;4.60;;
70953;SDS011;58618;47.490;8.736;2023-04-30T08:15:29;7.43;;;4.82;;
70953;SDS011;58618;47.490;8.736;2023-04-30T08:18:16;6.70;;;4.13;;
70953;SDS011;58618;47.490;8.736;2023-04-30T08:21:03;9.00;;;5.68;;
70953;SDS011;58618;47.490;8.736;2023-04-30T08:23:51;7.40;;;4.60;;
70953;SDS011;58618;47.490;8.736;2023-04-30T08:26:38;7.32;;;4.50;;
70953;SDS011;58618;47.490;8.736;2023-04-30T08:29:27;7.85;;;4.85;;
70953;SDS011;58618;47.490;8.736;2023-04-30T08:32:15;7.70;;;4.73;;
70953;SDS011;58618;47.490;8.736;2023-04-30T08:35:05;8.10;;;5.10;;
70953;SDS011;58618;47.490;8.736;2023-04-30T08:37:52;9.35;;;4.78;;
70953;SDS011;58618;47.490;8.736;2023-04-30T08:40:41;9.15;;;5.18;;
70953;SDS011;58618;47.490;8.736;2023-04-30T08:43:34;7.53;;;5.00;;
70953;SDS011;58618;47.490;8.736;2023-04-30T08:46:23;7.37;;;4.80;;
70953;SDS011;58618;47.490;8.736;2023-04-30T08:49:11;7.75;;;4.85;;
70953;SDS011;58618;47.490;8.736;2023-04-30T08:51:58;7.13;;;4.47;;
70953;SDS011;58618;47.490;8.736;2023-04-30T08:54:46;8.10;;;5.22;;
70953;SDS011;58618;47.490;8.736;2023-04-30T08:57:34;7.22;;;4.07;;
70953;SDS011;58618;47.490;8.736;2023-04-30T09:00:22;7.00;;;4.80;;
70953;SDS011;58618;47.490;8.736;2023-04-30T09:03:12;7.10;;;4.90;;
70953;SDS011;58618;47.490;8.736;2023-04-30T09:06:00;8.18;;;5.00;;
70953;SDS011;58618;47.490;8.736;2023-04-30T09:08:47;7.13;;;4.82;;
70953;SDS011;58618;47.490;8.736;2023-04-30T09:11:35;7.05;;;4.70;;
70953;SDS011;58618;47.490;8.736;2023-04-30T09:14:23;6.40;;;4.50;;
70953;SDS011;58618;47.490;8.736;2023-04-30T09:17:12;7.15;;;4.30;;
70953;SDS011;58618;47.490;8.736;2023-04-30T09:20:10;6.63;;;4.00;;
70953;SDS011;58618;47.490;8.736;2023-04-30T09:23:04;6.30;;;3.92;;
70953;SDS011;58618;47.490;8.736;2023-04-30T09:25:52;6.85;;;4.22;;
70953;SDS011;58618;47.490;8.736;2023-04-30T09:28:52;7.03;;;4.37;;
70953;SDS011;58618;47.490;8.736;2023-04-30T09:31:42;5.65;;;3.85;;
70953;SDS011;58618;47.490;8.736;2023-04-30T09:34:32;6.15;;;3.90;;
70953;SDS011;58618;47.490;8.736;2023-04-30T09:37:22;6.30;;;4.22;;
70953;SDS011;58618;47.490;8.736;2023-04-30T09:40:31;5.72;;;4.00;;
70953;SDS011;58618;47.490;8.736;2023-04-30T09:43:18;6.47;;;3.70;;
70953;SDS011;58618;47.490;8.736;2023-04-30T09:46:06;5.43;;;3.38;;
70953;SDS011;58618;47.490;8.736;2023-04-30T09:48:56;5.78;;;3.72;;
70953;SDS011;58618;47.490;8.736;2023-04-30T09:51:52;5.90;;;4.15;;
70953;SDS011;58618;47.490;8.736;2023-04-30T09:54:43;5.70;;;3.83;;
70953;SDS011;58618;47.490;8.736;2023-04-30T09:57:31;7.17;;;3.60;;
70953;SDS011;58618;47.490;8.736;2023-04-30T10:00:21;4.50;;;3.13;;
70953;SDS011;58618;47.490;8.736;2023-04-30T10:03:10;5.05;;;3.50;;
70953;SDS011;58618;47.490;8.736;2023-04-30T10:05:58;4.88;;;3.10;;
70953;SDS011;58618;47.490;8.736;2023-04-30T10:08:47;3.92;;;2.92;;
70953;SDS011;58618;47.490;8.736;2023-04-30T10:11:38;4.63;;;3.53;;
70953;SDS011;58618;47.490;8.736;2023-04-30T10:14:27;5.25;;;3.30;;
70953;SDS011;58618;47.490;8.736;2023-04-30T10:17:19;3.42;;;2.85;;
70953;SDS011;58618;47.490;8.736;2023-04-30T10:20:10;5.05;;;3.70;;
70953;SDS011;58618;47.490;8.736;2023-04-30T10:22:58;4.45;;;3.20;;
70953;SDS011;58618;47.490;8.736;2023-04-30T10:25:46;5.20;;;2.80;;
70953;SDS011;58618;47.490;8.736;2023-04-30T10:28:35;3.85;;;2.90;;
70953;SDS011;58618;47.490;8.736;2023-04-30T10:31:23;4.95;;;2.90;;
70953;SDS011;58618;47.490;8.736;2023-04-30T10:34:14;4.65;;;3.03;;
70953;SDS011;58618;47.490;8.736;2023-04-30T10:37:09;5.20;;;3.17;;
70953;SDS011;58618;47.490;8.736;2023-04-30T10:40:03;5.03;;;2.80;;
70953;SDS011;58618;47.490;8.736;2023-04-30T10:42:54;3.33;;;2.65;;
70953;SDS011;58618;47.490;8.736;2023-04-30T10:45:43;3.22;;;2.60;;
70953;SDS011;58618;47.490;8.736;2023-04-30T10:48:32;3.80;;;2.75;;
70953;SDS011;58618;47.490;8.736;2023-04-30T10:51:20;2.90;;;2.35;;
70953;SDS011;58618;47.490;8.736;2023-04-30T10:54:08;4.10;;;2.73;;
70953;SDS011;58618;47.490;8.736;2023-04-30T10:57:07;3.65;;;2.30;;
70953;SDS011;58618;47.490;8.736;2023-04-30T11:03:06;4.35;;;2.70;;
70953;SDS011;58618;47.490;8.736;2023-04-30T11:05:53;3.10;;;2.30;;
70953;SDS011;58618;47.490;8.736;2023-04-30T11:08:42;3.23;;;2.40;;
70953;SDS011;58618;47.490;8.736;2023-04-30T11:11:32;4.25;;;2.70;;
70953;SDS011;58618;47.490;8.736;2023-04-30T11:14:19;4.38;;;2.83;;
70953;SDS011;58618;47.490;8.736;2023-04-30T11:17:08;3.25;;;2.63;;
70953;SDS011;58618;47.490;8.736;2023-04-30T11:19:59;3.33;;;2.38;;
70953;SDS011;58618;47.490;8.736;2023-04-30T11:22:46;3.10;;;2.40;;
70953;SDS011;58618;47.490;8.736;2023-04-30T11:25:38;3.03;;;2.20;;
70953;SDS011;58618;47.490;8.736;2023-04-30T11:28:26;2.47;;;2.10;;
70953;SDS011;58618;47.490;8.736;2023-04-30T11:31:15;3.92;;;2.70;;
70953;SDS011;58618;47.490;8.736;2023-04-30T11:34:03;3.10;;;2.30;;
70953;SDS011;58618;47.490;8.736;2023-04-30T11:36:54;4.63;;;2.77;;
70953;SDS011;58618;47.490;8.736;2023-04-30T11:39:46;3.85;;;2.47;;
70953;SDS011;58618;47.490;8.736;2023-04-30T11:42:33;3.65;;;2.40;;
70953;SDS011;58618;47.490;8.736;2023-04-30T11:45:21;3.25;;;2.55;;
70953;SDS011;58618;47.490;8.736;2023-04-30T11:48:11;2.95;;;2.20;;
70953;SDS011;58618;47.490;8.736;2023-04-30T11:51:01;3.73;;;2.40;;
70953;SDS011;58618;47.490;8.736;2023-04-30T11:53:51;3.22;;;2.22;;
70953;SDS011;58618;47.490;8.736;2023-04-30T11:56:39;4.68;;;2.90;;
70953;SDS011;58618;47.490;8.736;2023-04-30T11:59:26;2.90;;;2.00;;
70953;SDS011;58618;47.490;8.736;2023-04-30T12:02:14;3.13;;;2.30;;
70953;SDS011;58618;47.490;8.736;2023-04-30T12:05:02;5.83;;;2.50;;
70953;SDS011;58618;47.490;8.736;2023-04-30T12:07:50;3.58;;;2.70;;
70953;SDS011;58618;47.490;8.736;2023-04-30T12:10:46;2.83;;;2.13;;
70953;SDS011;58618;47.490;8.736;2023-04-30T12:13:33;3.13;;;1.90;;
70953;SDS011;58618;47.490;8.736;2023-04-30T12:16:22;3.05;;;2.08;;
70953;SDS011;58618;47.490;8.736;2023-04-30T12:19:10;2.90;;;2.17;;
70953;SDS011;58618;47.490;8.736;2023-04-30T12:21:58;2.78;;;2.17;;
70953;SDS011;58618;47.490;8.736;2023-04-30T12:24:46;2.45;;;2.05;;
70953;SDS011;58618;47.490;8.736;2023-04-30T12:27:34;2.60;;;2.08;;
70953;SDS011;58618;47.490;8.736;2023-04-30T12:30:23;3.17;;;2.15;;
70953;SDS011;58618;47.490;8.736;2023-04-30T12:33:11;3.17;;;2.37;;
70953;SDS011;58618;47.490;8.736;2023-04-30T12:35:58;3.88;;;2.45;;
70953;SDS011;58618;47.490;8.736;2023-04-30T12:38:46;2.95;;;2.30;;
70953;SDS011;58618;47.490;8.736;2023-04-30T12:41:36;2.72;;;2.13;;
70953;SDS011;58618;47.490;8.736;2023-04-30T12:44:27;3.33;;;2.40;;
70953;SDS011;58618;47.490;8.736;2023-04-30T12:47:14;2.97;;;2.13;;
70953;SDS011;58618;47.490;8.736;2023-04-30T12:50:03;2.35;;;1.90;;
70953;SDS011;58618;47.490;8.736;2023-04-30T12:52:54;2.75;;;2.10;;
70953;SDS011;58618;47.490;8.736;2023-04-30T12:56:06;3.50;;;2.42;;
70953;SDS011;58618;47.490;8.736;2023-04-30T12:58:55;2.80;;;1.83;;
70953;SDS011;58618;47.490;8.736;2023-04-30T13:01:46;2.63;;;2.00;;
70953;SDS011;58618;47.490;8.736;2023-04-30T13:04:34;2.45;;;1.70;;
70953;SDS011;58618;47.490;8.736;2023-04-30T13:07:22;2.80;;;2.10;;
70953;SDS011;58618;47.490;8.736;2023-04-30T13:10:09;3.05;;;2.20;;
70953;SDS011;58618;47.490;8.736;2023-04-30T13:12:58;2.58;;;1.90;;
70953;SDS011;58618;47.490;8.736;2023-04-30T13:15:45;2.40;;;1.90;;
70953;SDS011;58618;47.490;8.736;2023-04-30T13:18:34;2.20;;;1.73;;
70953;SDS011;58618;47.490;8.736;2023-04-30T13:21:22;2.40;;;2.00;;
70953;SDS011;58618;47.490;8.736;2023-04-30T13:24:09;2.95;;;2.05;;
70953;SDS011;58618;47.490;8.736;2023-04-30T13:26:57;2.75;;;2.10;;
70953;SDS011;58618;47.490;8.736;2023-04-30T13:29:45;2.30;;;1.80;;
70953;SDS011;58618;47.490;8.736;2023-04-30T13:32:32;3.00;;;1.95;;
70953;SDS011;58618;47.490;8.736;2023-04-30T13:35:21;2.55;;;1.92;;
70953;SDS011;58618;47.490;8.736;2023-04-30T13:38:08;3.35;;;1.73;;
70953;SDS011;58618;47.490;8.736;2023-04-30T13:40:56;1.98;;;1.52;;
70953;SDS011;58618;47.490;8.736;2023-04-30T13:43:44;2.90;;;2.10;;
70953;SDS011;58618;47.490;8.736;2023-04-30T13:46:32;2.35;;;1.70;;
70953;SDS011;58618;47.490;8.736;2023-04-30T13:49:19;3.42;;;2.20;;
70953;SDS011;58618;47.490;8.736;2023-04-30T13:52:08;3.00;;;2.00;;
70953;SDS011;58618;47.490;8.736;2023-04-30T13:54:55;4.00;;;2.00;;
70953;SDS011;58618;47.490;8.736;2023-04-30T13:57:43;2.30;;;1.77;;
70953;SDS011;58618;47.490;8.736;2023-04-30T14:00:30;3.20;;;2.20;;
70953;SDS011;58618;47.490;8.736;2023-04-30T14:03:18;2.65;;;2.08;;
70953;SDS011;58618;47.490;8.736;2023-04-30T14:06:05;2.83;;;1.95;;
70953;SDS011;58618;47.490;8.736;2023-04-30T14:08:53;2.83;;;2.00;;
70953;SDS011;58618;47.490;8.736;2023-04-30T14:11:41;2.30;;;1.90;;
70953;SDS011;58618;47.490;8.736;2023-04-30T14:14:28;2.80;;;1.85;;
70953;SDS011;58618;47.490;8.736;2023-04-30T14:17:15;2.65;;;1.73;;
70953;SDS011;58618;47.490;8.736;2023-04-30T14:20:03;2.60;;;1.90;;
70953;SDS011;58618;47.490;8.736;2023-04-30T14:22:51;2.33;;;2.00;;
70953;SDS011;58618;47.490;8.736;2023-04-30T14:25:40;2.37;;;1.80;;
70953;SDS011;58618;47.490;8.736;2023-04-30T14:28:28;2.42;;;1.80;;
70953;SDS011;58618;47.490;8.736;2023-04-30T14:31:15;2.40;;;1.92;;
70953;SDS011;58618;47.490;8.736;2023-04-30T14:34:03;4.63;;;1.88;;
70953;SDS011;58618;47.490;8.736;2023-04-30T14:36:50;2.65;;;2.08;;
70953;SDS011;58618;47.490;8.736;2023-04-30T14:39:37;2.93;;;1.70;;
70953;SDS011;58618;47.490;8.736;2023-04-30T14:42:26;2.53;;;1.85;;
70953;SDS011;58618;47.490;8.736;2023-04-30T14:45:13;2.40;;;1.60;;
70953;SDS011;58618;47.490;8.736;2023-04-30T14:48:01;2.60;;;2.00;;
70953;SDS011;58618;47.490;8.736;2023-04-30T14:50:48;2.90;;;2.20;;
70953;SDS011;58618;47.490;8.736;2023-04-30T14:53:36;2.97;;;1.90;;
70953;SDS011;58618;47.490;8.736;2023-04-30T14:56:23;2.70;;;2.13;;
70953;SDS011;58618;47.490;8.736;2023-04-30T14:59:12;2.30;;;1.83;;
70953;SDS011;58618;47.490;8.736;2023-04-30T15:01:59;1.85;;;1.48;;
70953;SDS011;58618;47.490;8.736;2023-04-30T15:04:47;2.35;;;2.00;;
70953;SDS011;58618;47.490;8.736;2023-04-30T15:07:34;2.87;;;1.73;;
70953;SDS011;58618;47.490;8.736;2023-04-30T15:10:22;2.50;;;1.95;;
70953;SDS011;58618;47.490;8.736;2023-04-30T15:13:09;2.92;;;2.00;;
70953;SDS011;58618;47.490;8.736;2023-04-30T15:15:59;2.10;;;1.73;;
70953;SDS011;58618;47.490;8.736;2023-04-30T15:18:47;4.00;;;2.33;;
70953;SDS011;58618;47.490;8.736;2023-04-30T15:21:34;2.70;;;2.00;;
70953;SDS011;58618;47.490;8.736;2023-04-30T15:24:22;2.72;;;1.83;;
70953;SDS011;58618;47.490;8.736;2023-04-30T15:27:09;3.78;;;2.33;;
70953;SDS011;58618;47.490;8.736;2023-04-30T15:29:57;2.78;;;2.08;;
70953;SDS011;58618;47.490;8.736;2023-04-30T15:32:46;3.15;;;2.20;;
70953;SDS011;58618;47.490;8.736;2023-04-30T15:35:33;4.43;;;2.60;;
70953;SDS011;58618;47.490;8.736;2023-04-30T15:38:20;3.25;;;2.33;;
70953;SDS011;58618;47.490;8.736;2023-04-30T15:41:08;4.07;;;2.72;;
70953;SDS011;58618;47.490;8.736;2023-04-30T15:43:55;3.95;;;2.40;;
70953;SDS011;58618;47.490;8.736;2023-04-30T15:46:42;5.05;;;2.65;;
70953;SDS011;58618;47.490;8.736;2023-04-30T15:49:31;2.47;;;1.87;;
70953;SDS011;58618;47.490;8.736;2023-04-30T15:52:18;4.93;;;2.70;;
70953;SDS011;58618;47.490;8.736;2023-04-30T15:55:06;3.38;;;2.30;;
70953;SDS011;58618;47.490;8.736;2023-04-30T15:57:54;3.17;;;1.95;;
70953;SDS011;58618;47.490;8.736;2023-04-30T16:00:41;2.50;;;2.10;;
70953;SDS011;58618;47.490;8.736;2023-04-30T16:03:29;2.30;;;1.80;;
70953;SDS011;58618;47.490;8.736;2023-04-30T16:06:18;2.65;;;1.95;;
70953;SDS011;58618;47.490;8.736;2023-04-30T16:09:05;3.30;;;2.33;;
70953;SDS011;58618;47.490;8.736;2023-04-30T16:11:54;2.25;;;1.85;;
70953;SDS011;58618;47.490;8.736;2023-04-30T16:14:42;2.58;;;1.88;;
70953;SDS011;58618;47.490;8.736;2023-04-30T16:17:29;3.23;;;2.13;;
70953;SDS011;58618;47.490;8.736;2023-04-30T16:20:17;2.55;;;1.88;;
70953;SDS011;58618;47.490;8.736;2023-04-30T16:23:06;2.60;;;2.00;;
70953;SDS011;58618;47.490;8.736;2023-04-30T16:25:53;3.67;;;2.38;;
70953;SDS011;58618;47.490;8.736;2023-04-30T16:28:41;2.75;;;2.03;;
70953;SDS011;58618;47.490;8.736;2023-04-30T16:31:28;3.70;;;2.43;;
70953;SDS011;58618;47.490;8.736;2023-04-30T16:34:17;3.10;;;2.20;;
70953;SDS011;58618;47.490;8.736;2023-04-30T16:37:04;3.00;;;2.05;;
70953;SDS011;58618;47.490;8.736;2023-04-30T16:39:53;3.75;;;2.13;;
70953;SDS011;58618;47.490;8.736;2023-04-30T16:42:41;3.25;;;2.20;;
70953;SDS011;58618;47.490;8.736;2023-04-30T16:45:28;3.40;;;2.03;;
70953;SDS011;58618;47.490;8.736;2023-04-30T16:48:16;3.08;;;2.15;;
70953;SDS011;58618;47.490;8.736;2023-04-30T16:51:03;2.40;;;2.00;;
70953;SDS011;58618;47.490;8.736;2023-04-30T16:53:52;2.95;;;1.98;;
70953;SDS011;58618;47.490;8.736;2023-04-30T16:56:40;2.63;;;2.30;;
70953;SDS011;58618;47.490;8.736;2023-04-30T16:59:28;5.60;;;2.40;;